Time;durP1;ratioP1;P1;durP2;ratioP2;P2;SDS_P1;SDS_P2;PMS_P1;PMS_P2;Temp;Humidity;BMP_temperature;BMP_pressure;BME280_temperature;BME280_humidity;BME280_pressure;Samples;Min_cycle;Max_cycle;Signal;HPM_P1;HPM_P2
2024/03/12 00:01:09;;;;;;;;;;;;;;;6.81;100.00;99570.97;5034375;28;883;-61
2024/03/12 00:03:36;;;;;;;;;;;;;;;6.79;100.00;99562.31;5034314;28;926;-61
2024/03/12 00:06:03;;;;;;;;;;;;;;;6.78;100.00;99555.22;5034110;28;910;-61
2024/03/12 00:08:29;;;;;;;;;;;;;;;6.68;100.00;99554.78;5034270;28;857;-61
2024/03/12 00:10:55;;;;;;;;;;;;;;;6.63;100.00;99543.38;5034202;28;1949;-61
2024/03/12 00:13:23;;;;;;;;;;;;;;;6.65;100.00;99539.06;5034189;28;1233;-61
2024/03/12 00:15:49;;;;;;;;;;;;;;;6.70;100.00;99540.66;5034121;28;852;-61
2024/03/12 00:18:15;;;;;;;;;;;;;;;6.77;100.00;99542.69;5034223;28;891;-60
2024/03/12 00:20:43;;;;;;;;;;;;;;;6.85;100.00;99534.09;5034040;28;832;-60
2024/03/12 00:23:09;;;;;;;;;;;;;;;6.85;100.00;99541.53;5033955;28;860;-61
2024/03/12 00:25:37;;;;;;;;;;;;;;;6.90;100.00;99530.97;5034030;28;879;-61
2024/03/12 00:28:05;;;;;;;;;;;;;;;6.93;100.00;99529.41;5033873;28;866;-60
2024/03/12 00:30:32;;;;;;;;;;;;;;;7.01;100.00;99531.03;5033749;28;1969;-60
2024/03/12 00:32:59;;;;;;;;;;;;;;;7.15;100.00;99531.09;5033771;28;899;-61
2024/03/12 00:35:34;;;;;;;;;;;;;;;7.28;100.00;99528.03;5033744;28;864;-61
2024/03/12 00:38:00;;;;;;;;;;;;;;;7.31;100.00;99522.53;5033714;28;840;-61
2024/03/12 00:40:33;;;;;;;;;;;;;;;7.31;100.00;99519.00;5033574;28;922;-61
2024/03/12 00:43:00;;;;;;;;;;;;;;;7.26;100.00;99508.38;5033669;28;852;-61
2024/03/12 00:45:29;;;;;;;;;;;;;;;7.18;100.00;99493.81;5033577;28;867;-61
2024/03/12 00:47:57;;;;;;;;;;;;;;;7.06;100.00;99489.47;5033497;28;1320;-61
2024/03/12 00:50:23;;;;;;;;;;;;;;;6.94;100.00;99482.34;5033629;28;1886;-61
2024/03/12 00:52:53;;;;;;;;;;;;;;;6.94;100.00;99481.53;5033438;28;1325;-61
2024/03/12 00:55:20;;;;;;;;;;;;;;;7.01;100.00;99481.56;5033487;28;955;-61
2024/03/12 00:57:48;;;;;;;;;;;;;;;7.03;100.00;99475.69;5033334;28;910;-61
2024/03/12 01:00:17;;;;;;;;;;;;;;;7.00;100.00;99471.78;5033256;28;914;-61
2024/03/12 01:02:49;;;;;;;;;;;;;;;6.96;100.00;99476.47;5033486;28;832;-61
2024/03/12 01:05:25;;;;;;;;;;;;;;;6.97;100.00;99467.03;5033168;28;916;-61
2024/03/12 01:07:58;;;;;;;;;;;;;;;7.01;100.00;99467.81;5033050;28;1221;-61
2024/03/12 01:10:27;;;;;;;;;;;;;;;7.03;100.00;99451.75;5015214;28;1906;-61
2024/03/12 01:12:55;;;;;;;;;;;;;;;6.99;100.00;99459.19;5033053;28;1183;-61
2024/03/12 01:15:23;;;;;;;;;;;;;;;6.94;100.00;99454.06;5032995;28;906;-61
2024/03/12 01:17:50;;;;;;;;;;;;;;;6.94;100.00;99463.09;5032586;28;816;-61
2024/03/12 01:20:20;;;;;;;;;;;;;;;6.97;100.00;99449.75;5032991;28;835;-61
2024/03/12 01:22:47;;;;;;;;;;;;;;;7.00;100.00;99449.78;5032808;28;840;-61
2024/03/12 01:25:13;;;;;;;;;;;;;;;7.03;100.00;99443.50;5032775;28;894;-61
2024/03/12 01:27:43;;;;;;;;;;;;;;;7.06;100.00;99444.69;5032727;28;859;-61
2024/03/12 01:30:16;;;;;;;;;;;;;;;7.15;100.00;99454.16;5032589;28;1906;-61
2024/03/12 01:32:47;;;;;;;;;;;;;;;7.18;100.00;99454.56;5032979;28;894;-61
2024/03/12 01:35:14;;;;;;;;;;;;;;;7.19;100.00;99442.38;5032654;28;856;-61
2024/03/12 01:37:45;;;;;;;;;;;;;;;7.19;100.00;99443.19;5032610;28;882;-61
2024/03/12 01:40:26;;;;;;;;;;;;;;;7.18;100.00;99436.09;5032628;28;855;-61
2024/03/12 01:42:53;;;;;;;;;;;;;;;7.15;100.00;99437.66;5032500;28;828;-61
2024/03/12 01:45:24;;;;;;;;;;;;;;;7.23;100.00;99434.91;5032816;28;887;-61
2024/03/12 01:47:51;;;;;;;;;;;;;;;7.38;100.00;99433.00;5014617;28;955;-61
2024/03/12 01:50:18;;;;;;;;;;;;;;;7.54;100.00;99436.16;5032461;28;1889;-61
2024/03/12 01:52:46;;;;;;;;;;;;;;;7.66;100.00;99424.00;5032369;28;887;-61
2024/03/12 01:55:13;;;;;;;;;;;;;;;7.76;100.00;99436.97;5032134;28;887;-61
2024/03/12 01:57:45;;;;;;;;;;;;;;;7.80;100.00;99428.72;5032254;28;816;-61
2024/03/12 02:00:15;;;;;;;;;;;;;;;7.88;100.00;99436.59;5032063;28;883;-61
2024/03/12 02:02:42;;;;;;;;;;;;;;;7.92;100.00;99436.59;5032198;28;890;-61
2024/03/12 02:05:11;;;;;;;;;;;;;;;8.11;100.00;99424.41;5031997;28;813;-61
2024/03/12 02:07:45;;;;;;;;;;;;;;;8.18;100.00;99429.88;5031958;28;872;-61
2024/03/12 02:10:13;;;;;;;;;;;;;;;8.30;100.00;99420.41;5032147;28;1945;-61
2024/03/12 02:12:39;;;;;;;;;;;;;;;8.29;100.00;99421.63;5032061;28;984;-61
2024/03/12 02:15:07;;;;;;;;;;;;;;;8.15;100.00;99414.97;5031905;28;1260;-61
2024/03/12 02:17:35;;;;;;;;;;;;;;;8.12;100.00;99415.72;5032078;28;883;-61
2024/03/12 02:20:08;;;;;;;;;;;;;;;8.10;100.00;99406.31;5014073;28;1323;-61
2024/03/12 02:22:35;;;;;;;;;;;;;;;8.07;100.00;99402.38;5031905;28;891;-62
2024/03/12 02:25:05;;;;;;;;;;;;;;;8.00;100.00;99407.91;5031808;28;977;-61
2024/03/12 02:27:32;;;;;;;;;;;;;;;7.98;100.00;99402.78;5031789;28;864;-61
2024/03/12 02:29:59;;;;;;;;;;;;;;;7.97;100.00;99389.41;5030635;28;1902;-62
2024/03/12 02:32:26;;;;;;;;;;;;;;;7.97;100.00;99394.91;5031736;28;816;-62
2024/03/12 02:34:52;;;;;;;;;;;;;;;7.96;100.00;99396.09;5031753;28;852;-62
2024/03/12 02:37:21;;;;;;;;;;;;;;;7.88;100.00;99387.06;5013862;28;1177;-62
2024/03/12 02:39:47;;;;;;;;;;;;;;;7.86;100.00;99389.41;5031812;28;852;-62
2024/03/12 02:42:13;;;;;;;;;;;;;;;7.86;100.00;99385.88;5031530;28;846;-62
2024/03/12 02:44:40;;;;;;;;;;;;;;;7.88;100.00;99380.78;5031887;28;915;-62
2024/03/12 02:47:07;;;;;;;;;;;;;;;7.95;100.00;99386.25;5031489;28;828;-62
2024/03/12 02:49:35;;;;;;;;;;;;;;;8.03;100.00;99385.09;5031484;28;1881;-62
2024/03/12 02:52:02;;;;;;;;;;;;;;;8.11;100.00;99385.88;5031444;28;875;-61
2024/03/12 02:54:29;;;;;;;;;;;;;;;8.18;100.00;99383.09;5031585;28;801;-62
2024/03/12 02:56:55;;;;;;;;;;;;;;;8.25;100.00;99377.56;5031698;28;959;-62
2024/03/12 02:59:23;;;;;;;;;;;;;;;8.27;100.00;99375.19;5031476;28;855;-62
2024/03/12 03:01:50;;;;;;;;;;;;;;;8.30;100.00;99374.41;5031411;28;784;-62
2024/03/12 03:04:17;;;;;;;;;;;;;;;8.34;100.00;99377.94;5031314;28;903;-62
2024/03/12 03:06:44;;;;;;;;;;;;;;;8.29;100.00;99381.09;5031435;28;899;-62
2024/03/12 03:09:12;;;;;;;;;;;;;;;8.25;100.00;99376.78;5031218;28;1883;-62
2024/03/12 03:11:39;;;;;;;;;;;;;;;8.19;100.00;99379.16;5031417;28;820;-62
2024/03/12 03:14:05;;;;;;;;;;;;;;;8.14;100.00;99377.59;5030957;28;1350;-62
2024/03/12 03:16:33;;;;;;;;;;;;;;;8.13;100.00;99380.75;5031303;28;832;-62
2024/03/12 03:18:59;;;;;;;;;;;;;;;8.08;100.00;99384.66;5013477;28;1165;-61
2024/03/12 03:21:25;;;;;;;;;;;;;;;8.04;100.00;99377.59;5031288;28;917;-62
2024/03/12 03:23:52;;;;;;;;;;;;;;;7.96;100.00;99377.63;5013458;28;1236;-62
2024/03/12 03:26:19;;;;;;;;;;;;;;;7.88;100.00;99370.56;5031240;28;823;-62
2024/03/12 03:28:45;;;;;;;;;;;;;;;7.83;100.00;99370.16;5013378;28;1196;-62
2024/03/12 03:31:12;;;;;;;;;;;;;;;7.81;100.00;99378.00;5031167;28;1981;-62
2024/03/12 03:33:39;;;;;;;;;;;;;;;7.79;100.00;99372.94;5031159;28;904;-62
2024/03/12 03:36:05;;;;;;;;;;;;;;;7.81;100.00;99373.31;5031140;28;881;-63
2024/03/12 03:38:33;;;;;;;;;;;;;;;7.82;100.00;99372.13;5031085;28;933;-61
2024/03/12 03:41:00;;;;;;;;;;;;;;;7.86;100.00;99372.91;5031422;28;853;-62
2024/03/12 03:43:26;;;;;;;;;;;;;;;7.85;100.00;99365.03;5034693;28;816;-62
2024/03/12 03:45:53;;;;;;;;;;;;;;;7.81;100.00;99373.31;5016871;28;1180;-62
2024/03/12 03:48:18;;;;;;;;;;;;;;;7.77;100.00;99375.28;5034907;28;847;-62
2024/03/12 03:50:45;;;;;;;;;;;;;;;7.71;100.00;99372.13;5034712;28;1953;-62
2024/03/12 03:53:12;;;;;;;;;;;;;;;7.65;100.00;99365.44;5034655;28;815;-61
2024/03/12 03:55:38;;;;;;;;;;;;;;;7.58;100.00;99365.47;5034502;28;906;-61
2024/03/12 03:58:06;;;;;;;;;;;;;;;7.54;100.00;99367.41;5034454;28;888;-62
2024/03/12 04:00:35;;;;;;;;;;;;;;;7.49;100.00;99365.03;5034432;28;933;-61
2024/03/12 04:03:02;;;;;;;;;;;;;;;7.49;100.00;99363.09;5034690;28;867;-62
2024/03/12 04:05:29;;;;;;;;;;;;;;;7.52;100.00;99367.81;5034294;28;885;-62
2024/03/12 04:07:55;;;;;;;;;;;;;;;7.63;100.00;99367.81;5034322;28;891;-62
2024/03/12 04:10:22;;;;;;;;;;;;;;;7.66;100.00;99364.28;5034193;28;1957;-62
2024/03/12 04:12:49;;;;;;;;;;;;;;;7.65;100.00;99364.66;5034265;28;887;-62
2024/03/12 04:15:16;;;;;;;;;;;;;;;7.63;100.00;99373.31;5034041;28;1311;-62
2024/03/12 04:17:43;;;;;;;;;;;;;;;7.65;100.00;99364.66;5034172;28;875;-62
2024/03/12 04:20:11;;;;;;;;;;;;;;;7.78;100.00;99350.09;5034037;28;888;-62
2024/03/12 04:22:45;;;;;;;;;;;;;;;7.96;100.00;99357.59;5034011;28;832;-61
2024/03/12 04:25:12;;;;;;;;;;;;;;;8.02;100.00;99361.47;5033917;28;860;-61
2024/03/12 04:27:42;;;;;;;;;;;;;;;8.02;100.00;99358.72;5033885;28;890;-61
2024/03/12 04:30:09;;;;;;;;;;;;;;;8.02;100.00;99357.94;5034084;28;1884;-61
2024/03/12 04:32:36;;;;;;;;;;;;;;;7.98;100.00;99357.97;5033730;28;891;-62
2024/03/12 04:35:13;;;;;;;;;;;;;;;7.96;100.00;99357.59;5033832;28;914;-61
2024/03/12 04:37:40;;;;;;;;;;;;;;;8.00;100.00;99352.84;5033656;28;848;-61
2024/03/12 04:40:07;;;;;;;;;;;;;;;8.04;100.00;99358.34;5033673;28;864;-62
2024/03/12 04:42:37;;;;;;;;;;;;;;;8.12;100.00;99357.94;5033593;28;864;-62
2024/03/12 04:45:05;;;;;;;;;;;;;;;8.19;100.00;99359.88;5033576;28;1029;-61
2024/03/12 04:47:35;;;;;;;;;;;;;;;8.10;100.00;99356.75;5033478;28;820;-61
2024/03/12 04:50:02;;;;;;;;;;;;;;;7.97;100.00;99342.63;5033353;28;1894;-61
2024/03/12 04:52:29;;;;;;;;;;;;;;;7.91;100.00;99346.94;5015159;28;1237;-61
2024/03/12 04:54:56;;;;;;;;;;;;;;;7.87;100.00;99343.41;5032961;28;847;-61
2024/03/12 04:57:23;;;;;;;;;;;;;;;7.82;100.00;99341.09;5033369;28;875;-62
2024/03/12 04:59:50;;;;;;;;;;;;;;;7.76;100.00;99324.94;5033287;28;852;-62
2024/03/12 05:02:16;;;;;;;;;;;;;;;7.73;100.00;99330.47;5033348;28;895;-62
2024/03/12 05:04:43;;;;;;;;;;;;;;;7.72;100.00;99329.69;5033143;28;899;-62
2024/03/12 05:07:11;;;;;;;;;;;;;;;7.70;100.00;99337.56;5033214;28;891;-62
2024/03/12 05:09:38;;;;;;;;;;;;;;;7.71;100.00;99338.34;5033001;28;1893;-62
2024/03/12 05:12:05;;;;;;;;;;;;;;;7.68;100.00;99334.41;5032996;28;1018;-61
2024/03/12 05:14:31;;;;;;;;;;;;;;;7.63;100.00;99334.03;5032725;28;1220;-62
2024/03/12 05:16:59;;;;;;;;;;;;;;;7.56;100.00;99338.34;5033055;28;863;-62
2024/03/12 05:19:26;;;;;;;;;;;;;;;7.43;100.00;99341.88;5032904;28;884;-62
2024/03/12 05:21:52;;;;;;;;;;;;;;;7.38;100.00;99323.00;5032813;28;854;-62
2024/03/12 05:24:19;;;;;;;;;;;;;;;7.30;100.00;99336.00;5032828;28;848;-62
2024/03/12 05:26:49;;;;;;;;;;;;;;;7.27;100.00;99331.25;5032789;28;813;-62
2024/03/12 05:29:17;;;;;;;;;;;;;;;7.30;100.00;99336.78;5014857;28;1965;-62
2024/03/12 05:31:44;;;;;;;;;;;;;;;7.34;100.00;99328.53;5032668;28;883;-62
2024/03/12 05:34:29;;;;;;;;;;;;;;;7.33;100.00;99326.94;5032597;28;826;-62
2024/03/12 05:37:05;;;;;;;;;;;;;;;7.38;100.00;99323.00;5032617;28;864;-62
2024/03/12 05:39:47;;;;;;;;;;;;;;;7.41;100.00;99320.28;5032652;28;895;-62
2024/03/12 05:50:28;;;;;;;;;;;;;;;7.89;100.00;99313.53;5032237;28;1939;-61
2024/03/12 05:52:56;;;;;;;;;;;;;;;7.97;100.00;99321.38;5032421;28;880;-62
2024/03/12 05:55:23;;;;;;;;;;;;;;;8.08;100.00;99318.59;5032169;28;853;-61
2024/03/12 05:57:50;;;;;;;;;;;;;;;8.22;100.00;99315.03;5032295;28;1056;-61
2024/03/12 06:00:17;;;;;;;;;;;;;;;8.36;100.00;99316.94;5032164;28;821;-61
2024/03/12 06:02:44;;;;;;;;;;;;;;;8.43;100.00;99310.66;5014440;28;1312;-62
2024/03/12 06:05:12;;;;;;;;;;;;;;;8.46;100.00;99305.13;5031898;28;887;-62
2024/03/12 06:07:44;;;;;;;;;;;;;;;8.52;100.00;99313.78;5032099;28;840;-62
2024/03/12 06:10:11;;;;;;;;;;;;;;;8.59;100.00;99316.50;5031789;28;1885;-62
2024/03/12 06:12:38;;;;;;;;;;;;;;;8.59;100.00;99308.22;5014366;28;1209;-62
2024/03/12 06:15:08;;;;;;;;;;;;;;;8.65;100.00;99317.66;5031728;28;1197;-61
2024/03/12 06:17:36;;;;;;;;;;;;;;;8.58;100.00;99317.69;5031887;28;950;-62
2024/03/12 06:20:05;;;;;;;;;;;;;;;8.46;100.00;99316.16;5030323;28;988;-62
2024/03/12 06:22:32;;;;;;;;;;;;;;;8.35;100.00;99318.16;5032039;28;1218;-62
2024/03/12 06:24:59;;;;;;;;;;;;;;;8.36;100.00;99323.25;5032088;28;815;-62
2024/03/12 06:27:26;;;;;;;;;;;;;;;8.38;100.00;99314.59;5031823;28;867;-62
2024/03/12 06:29:53;;;;;;;;;;;;;;;8.39;100.00;99316.16;5031786;28;1910;-61
2024/03/12 06:32:20;;;;;;;;;;;;;;;8.43;100.00;99311.47;5031726;28;1223;-61
2024/03/12 06:34:48;;;;;;;;;;;;;;;8.50;100.00;99305.91;5031886;28;1205;-61
2024/03/12 06:37:15;;;;;;;;;;;;;;;8.52;100.00;99300.78;5032024;28;1193;-61
2024/03/12 06:39:44;;;;;;;;;;;;;;;8.53;100.00;99293.31;5031945;28;861;-61
2024/03/12 06:42:12;;;;;;;;;;;;;;;8.53;100.00;99294.09;5031685;28;840;-61
2024/03/12 06:44:42;;;;;;;;;;;;;;;8.58;100.00;99296.44;5031702;28;843;-61
2024/03/12 06:47:09;;;;;;;;;;;;;;;8.61;100.00;99286.56;5031603;28;883;-61
2024/03/12 06:49:36;;;;;;;;;;;;;;;8.67;100.00;99293.25;5013791;28;1940;-61
2024/03/12 06:52:06;;;;;;;;;;;;;;;8.74;100.00;99287.69;5031610;28;852;-61
2024/03/12 06:54:36;;;;;;;;;;;;;;;8.73;100.00;99290.84;5031746;28;848;-61
2024/03/12 06:57:07;;;;;;;;;;;;;;;8.78;100.00;99290.41;5031588;28;844;-61
2024/03/12 06:59:33;;;;;;;;;;;;;;;8.83;100.00;99286.44;5031445;28;907;-61
2024/03/12 07:02:03;;;;;;;;;;;;;;;8.93;100.00;99289.13;5031479;28;816;-61
2024/03/12 07:04:43;;;;;;;;;;;;;;;9.05;100.00;99290.66;5031383;28;824;-60
2024/03/12 07:07:10;;;;;;;;;;;;;;;9.04;100.00;99291.81;5031466;28;915;-61
2024/03/12 07:09:40;;;;;;;;;;;;;;;8.95;100.00;99291.50;5031301;28;1943;-61
2024/03/12 07:12:08;;;;;;;;;;;;;;;8.87;100.00;99289.97;5031329;28;1004;-61
2024/03/12 07:14:45;;;;;;;;;;;;;;;8.81;100.00;99291.59;5031121;28;1315;-60
2024/03/12 07:17:14;;;;;;;;;;;;;;;8.75;100.00;99294.00;5033612;28;879;-61
2024/03/12 07:19:40;;;;;;;;;;;;;;;8.70;100.00;99299.91;5035279;28;836;-61
2024/03/12 07:22:07;;;;;;;;;;;;;;;8.66;100.00;99297.16;5035098;28;867;-61
2024/03/12 07:24:39;;;;;;;;;;;;;;;8.69;100.00;99303.88;5035230;28;1058;-60
2024/03/12 07:27:05;;;;;;;;;;;;;;;8.72;100.00;99298.31;5035106;28;1038;-61
2024/03/12 07:29:35;;;;;;;;;;;;;;;8.74;100.00;99312.47;5035035;28;1914;-61
2024/03/12 07:32:03;;;;;;;;;;;;;;;8.85;100.00;99317.16;5034888;28;875;-61
2024/03/12 07:34:32;;;;;;;;;;;;;;;8.94;100.00;99320.25;5035207;28;879;-61
2024/03/12 07:37:00;;;;;;;;;;;;;;;9.02;100.00;99323.75;5034864;28;820;-61
2024/03/12 07:39:36;;;;;;;;;;;;;;;9.12;100.00;99333.94;5035114;28;916;-61
2024/03/12 07:42:09;;;;;;;;;;;;;;;9.19;100.00;99334.66;5034879;28;860;-61
2024/03/12 07:44:36;;;;;;;;;;;;;;;9.17;100.00;99334.28;5034734;28;1030;-61
2024/03/12 07:47:05;;;;;;;;;;;;;;;9.17;100.00;99336.25;5034690;28;848;-61
2024/03/12 07:49:36;;;;;;;;;;;;;;;9.25;100.00;99326.75;5034793;28;2041;-61
2024/03/12 07:52:02;;;;;;;;;;;;;;;9.45;100.00;99328.94;5034932;28;839;-62
2024/03/12 07:54:31;;;;;;;;;;;;;;;9.65;100.00;99318.94;5034539;28;809;-61
2024/03/12 07:56:59;;;;;;;;;;;;;;;9.82;100.00;99326.25;5034554;28;839;-62
2024/03/12 07:59:28;;;;;;;;;;;;;;;9.91;100.00;99320.25;5016719;28;1339;-62
2024/03/12 08:01:57;;;;;;;;;;;;;;;10.11;100.00;99317.69;5034578;28;856;-63
2024/03/12 08:04:27;;;;;;;;;;;;;;;10.00;100.00;99305.97;5034601;28;832;-63
2024/03/12 08:06:54;;;;;;;;;;;;;;;10.10;100.00;99307.84;5034547;28;891;-63
2024/03/12 08:09:21;;;;;;;;;;;;;;;10.37;100.00;99316.25;5034250;28;1951;-63
2024/03/12 08:11:48;;;;;;;;;;;;;;;10.31;100.00;99309.63;5034260;28;867;-63
2024/03/12 08:14:16;;;;;;;;;;;;;;;10.23;100.00;99300.59;5034132;28;1183;-63
2024/03/12 08:16:43;;;;;;;;;;;;;;;10.30;100.00;99287.91;5034180;28;864;-63
2024/03/12 08:19:12;;;;;;;;;;;;;;;10.33;100.00;99273.28;5034137;28;878;-64
2024/03/12 08:21:39;;;;;;;;;;;;;;;10.07;100.00;99278.31;5033988;28;887;-63
2024/03/12 08:24:06;;;;;;;;;;;;;;;9.94;100.00;99300.13;5034122;28;856;-61
2024/03/12 08:26:33;;;;;;;;;;;;;;;9.89;100.00;99294.25;5016149;28;1208;-61
2024/03/12 08:29:00;;;;;;;;;;;;;;;9.94;100.00;99289.09;5033943;28;824;-61
2024/03/12 08:31:28;;;;;;;;;;;;;;;10.10;100.00;99291.28;5033795;28;1914;-62
2024/03/12 08:33:54;;;;;;;;;;;;;;;10.29;100.00;99291.88;5033885;28;836;-62
2024/03/12 08:36:24;;;;;;;;;;;;;;;10.60;100.00;99289.91;5033834;28;935;-62
2024/03/12 08:38:51;;;;;;;;;;;;;;;10.56;100.00;99289.16;5033790;28;967;-62
2024/03/12 08:41:17;;;;;;;;;;;;;;;10.49;100.00;99300.31;5033692;28;867;-63
2024/03/12 08:43:44;;;;;;;;;;;;;;;10.50;100.00;99312.97;5033911;28;861;-63
2024/03/12 08:46:10;;;;;;;;;;;;;;;10.50;100.00;99316.50;5033731;28;820;-63
2024/03/12 08:48:37;;;;;;;;;;;;;;;10.62;100.00;99320.66;5033605;28;879;-63
2024/03/12 08:51:04;;;;;;;;;;;;;;;10.62;100.00;99320.66;5033625;28;1862;-63
2024/03/12 08:53:30;;;;;;;;;;;;;;;10.62;100.00;99332.53;5033621;28;821;-63
2024/03/12 08:55:57;;;;;;;;;;;;;;;10.57;100.00;99335.75;5033477;28;839;-63
2024/03/12 08:58:24;;;;;;;;;;;;;;;10.53;100.00;99332.22;5033428;28;824;-64
2024/03/12 09:00:51;;;;;;;;;;;;;;;10.51;100.00;99337.38;5033387;28;813;-63
2024/03/12 09:03:18;;;;;;;;;;;;;;;10.48;100.00;99338.22;5033282;28;863;-62
2024/03/12 09:05:45;;;;;;;;;;;;;;;10.40;100.00;99315.41;5033276;28;801;-62
2024/03/12 09:08:11;;;;;;;;;;;;;;;10.25;100.00;99302.94;5033240;28;859;-62
2024/03/12 09:10:37;;;;;;;;;;;;;;;10.16;100.00;99317.25;5033006;28;1945;-64
2024/03/12 09:13:05;;;;;;;;;;;;;;;10.08;100.00;99321.28;5015155;28;1233;-63
2024/03/12 09:15:32;;;;;;;;;;;;;;;10.11;100.00;99311.38;5033118;28;825;-63
2024/03/12 09:18:04;;;;;;;;;;;;;;;10.15;100.00;99303.84;5033056;28;836;-63
2024/03/12 09:20:31;;;;;;;;;;;;;;;10.15;100.00;99312.91;5032998;28;876;-61
2024/03/12 09:22:58;;;;;;;;;;;;;;;10.27;100.00;99310.81;5033148;28;859;-61
2024/03/12 09:25:24;;;;;;;;;;;;;;;10.42;100.00;99318.53;5033085;28;852;-60
2024/03/12 09:27:50;;;;;;;;;;;;;;;10.36;100.00;99319.41;5032908;28;816;-60
2024/03/12 09:30:18;;;;;;;;;;;;;;;10.30;100.00;99337.63;5032735;28;1971;-60
2024/03/12 09:32:44;;;;;;;;;;;;;;;10.34;100.00;99332.84;5032834;28;896;-59
2024/03/12 09:35:11;;;;;;;;;;;;;;;10.42;100.00;99345.41;5032667;28;998;-59
2024/03/12 09:37:37;;;;;;;;;;;;;;;10.49;100.00;99350.06;5032702;28;848;-59
2024/03/12 09:40:07;;;;;;;;;;;;;;;10.49;100.00;99348.06;5014395;28;1525;-59
2024/03/12 10:13:38;;;;;;;;;;;;;;;13.01;100.00;99198.41;5276916;22;1694;-59
2024/03/12 10:16:07;;;;;;;;;;;;;;;13.56;100.00;99225.63;5052009;28;909;-59
2024/03/12 10:18:34;;;;;;;;;;;;;;;14.10;100.00;99252.72;5051812;28;977;-60
2024/03/12 10:21:01;;;;;;;;;;;;;;;14.02;100.00;99254.16;5052037;28;859;-60
2024/03/12 10:23:29;;;;;;;;;;;;;;;13.57;100.00;99232.72;5052237;28;1210;-60
2024/03/12 10:26:11;;;;;;;;;;;;;;;13.20;100.00;99230.03;5052016;28;1374;-59
2024/03/12 10:28:40;;;;;;;;;;;;;;;13.06;100.00;99238.72;5051857;28;883;-60
2024/03/12 10:31:11;;;;;;;;;;;;;;;12.87;100.00;99243.13;5051728;28;1906;-59
2024/03/12 10:33:40;;;;;;;;;;;;;;;12.78;100.00;99252.06;5034624;28;1218;-59
2024/03/12 10:36:10;;;;;;;;;;;;;;;12.83;100.00;99257.06;5051593;28;835;-59
2024/03/12 10:38:37;;;;;;;;;;;;;;;12.74;100.00;99261.63;5051795;28;870;-59
2024/03/12 10:41:18;;;;;;;;;;;;;;;12.56;100.00;99264.81;5051612;28;903;-60
2024/03/12 10:43:54;;;;;;;;;;;;;;;12.54;100.00;99258.91;5051655;28;859;-60
2024/03/12 10:46:22;;;;;;;;;;;;;;;12.54;100.00;99239.50;5051714;28;887;-59
2024/03/12 10:48:50;;;;;;;;;;;;;;;12.32;100.00;99215.03;5051646;28;824;-60
2024/03/12 10:51:17;;;;;;;;;;;;;;;12.51;100.00;99226.53;5052379;28;1951;-60
2024/03/12 10:53:49;;;;;;;;;;;;;;;12.75;100.00;99216.06;5056051;28;812;-60
2024/03/12 10:56:18;;;;;;;;;;;;;;;12.75;100.00;99225.16;5055618;28;916;-60
2024/03/12 10:58:48;;;;;;;;;;;;;;;12.72;100.00;99234.34;5055527;28;866;-62
2024/03/12 11:01:18;;;;;;;;;;;;;;;12.71;100.00;99245.88;5055580;28;851;-61
2024/03/12 11:03:45;;;;;;;;;;;;;;;12.63;100.00;99237.72;5055735;28;856;-61
2024/03/12 11:06:13;;;;;;;;;;;;;;;12.76;100.00;99215.66;5055709;28;921;-61
2024/03/12 11:08:43;;;;;;;;;;;;;;;12.68;100.00;99194.84;5055461;28;883;-62
2024/03/12 11:11:10;;;;;;;;;;;;;;;12.86;100.00;99183.31;5055353;28;1882;-61
2024/03/12 11:13:36;;;;;;;;;;;;;;;13.12;100.00;99178.75;5055067;28;1257;-62
2024/03/12 11:16:11;;;;;;;;;;;;;;;13.26;100.00;99177.59;5055202;28;880;-63
2024/03/12 11:18:38;;;;;;;;;;;;;;;13.56;100.00;99173.63;5055279;28;907;-61
2024/03/12 11:21:13;;;;;;;;;;;;;;;13.82;100.00;99171.72;5037262;28;1413;-63
2024/03/12 11:23:40;;;;;;;;;;;;;;;14.12;100.00;99177.25;5055302;28;1238;-61
2024/03/12 11:26:07;;;;;;;;;;;;;;;14.53;100.00;99184.75;5055087;28;1222;-60
2024/03/12 11:28:47;;;;;;;;;;;;;;;14.82;100.00;99187.44;5055064;28;848;-60
2024/03/12 11:31:13;;;;;;;;;;;;;;;14.73;100.00;99186.56;5054904;28;1965;-59
2024/03/12 11:33:46;;;;;;;;;;;;;;;14.57;100.00;99190.22;5054986;28;816;-59
2024/03/12 11:36:21;;;;;;;;;;;;;;;14.39;100.00;99168.50;5054899;28;892;-59
2024/03/12 11:38:51;;;;;;;;;;;;;;;14.37;100.00;99176.50;5054953;28;892;-59
2024/03/12 11:41:20;;;;;;;;;;;;;;;14.52;100.00;99163.72;5054926;28;836;-59
2024/03/12 11:43:47;;;;;;;;;;;;;;;14.86;100.00;99168.63;5054791;28;892;-59
2024/03/12 11:46:20;;;;;;;;;;;;;;;15.86;100.00;99169.22;5054891;28;823;-59
2024/03/12 11:48:47;;;;;;;;;;;;;;;16.39;100.00;99177.59;5054690;28;824;-59
2024/03/12 11:51:14;;;;;;;;;;;;;;;16.59;100.00;99177.19;5054724;28;1882;-61
2024/03/12 11:53:47;;;;;;;;;;;;;;;16.73;100.00;99164.72;5054924;28;831;-60
2024/03/12 11:56:26;;;;;;;;;;;;;;;16.44;100.00;99165.81;5054808;28;895;-60
2024/03/12 11:58:54;;;;;;;;;;;;;;;16.96;100.00;99159.81;5054541;28;915;-59
2024/03/12 12:01:26;;;;;;;;;;;;;;;17.32;100.00;99168.25;5054412;28;824;-59
2024/03/12 12:04:00;;;;;;;;;;;;;;;16.85;100.00;99165.84;5053871;28;924;-59
2024/03/12 12:06:26;;;;;;;;;;;;;;;16.66;100.00;99164.97;5054644;28;890;-59
2024/03/12 12:08:53;;;;;;;;;;;;;;;16.22;100.00;99157.50;5054385;28;1033;-59
2024/03/12 12:11:20;;;;;;;;;;;;;;;16.13;100.00;99161.03;5054224;28;1953;-59
2024/03/12 12:13:47;;;;;;;;;;;;;;;15.98;100.00;99148.06;5053944;28;1238;-59
2024/03/12 12:16:15;;;;;;;;;;;;;;;15.80;100.00;99149.50;5054318;28;820;-58
2024/03/12 12:18:41;;;;;;;;;;;;;;;15.61;100.00;99142.22;5054087;28;914;-60
2024/03/12 12:21:17;;;;;;;;;;;;;;;15.41;100.00;99140.53;5054050;28;888;-60
2024/03/12 12:23:47;;;;;;;;;;;;;;;15.46;100.00;99141.97;5054062;28;880;-59
2024/03/12 12:26:16;;;;;;;;;;;;;;;15.78;100.00;99146.41;5053949;28;835;-60
2024/03/12 12:28:43;;;;;;;;;;;;;;;15.99;100.00;99144.84;5054016;28;867;-60
2024/03/12 12:31:11;;;;;;;;;;;;;;;16.04;100.00;99149.03;5053798;28;1965;-60
2024/03/12 12:33:39;;;;;;;;;;;;;;;15.93;100.00;99147.44;5053840;28;849;-60
2024/03/12 12:36:13;;;;;;;;;;;;;;;15.88;100.00;99133.31;5053848;28;827;-61
2024/03/12 12:38:43;;;;;;;;;;;;;;;15.79;100.00;99138.81;5054099;28;827;-61
2024/03/12 12:41:11;;;;;;;;;;;;;;;15.67;100.00;99132.06;5054074;28;827;-60
2024/03/12 12:43:38;;;;;;;;;;;;;;;15.67;100.00;99135.63;5053772;28;918;-61
2024/03/12 12:46:16;;;;;;;;;;;;;;;15.70;100.00;99140.31;5053714;28;852;-61
2024/03/12 12:48:46;;;;;;;;;;;;;;;15.79;100.00;99141.59;5053622;28;1158;-60
2024/03/12 12:51:13;;;;;;;;;;;;;;;15.86;100.00;99141.34;5053537;28;1967;-60
2024/03/12 12:53:41;;;;;;;;;;;;;;;15.77;100.00;99138.50;5053529;28;902;-60
2024/03/12 12:56:08;;;;;;;;;;;;;;;15.50;100.00;99137.81;5053507;28;926;-62
2024/03/12 12:58:36;;;;;;;;;;;;;;;15.29;100.00;99131.00;5053407;28;925;-62
2024/03/12 13:01:11;;;;;;;;;;;;;;;15.13;100.00;99133.97;5053326;28;879;-61
2024/03/12 13:03:39;;;;;;;;;;;;;;;14.87;100.00;99134.03;5053270;28;892;-62
2024/03/12 13:06:16;;;;;;;;;;;;;;;14.77;100.00;99132.38;5053168;28;820;-62
2024/03/12 13:08:44;;;;;;;;;;;;;;;14.70;100.00;99141.72;5035373;28;1259;-60
2024/03/12 13:11:12;;;;;;;;;;;;;;;14.57;100.00;99134.59;5053036;28;1882;-60
2024/03/12 13:13:40;;;;;;;;;;;;;;;14.59;100.00;99132.91;5052247;28;1391;-60
2024/03/12 13:16:08;;;;;;;;;;;;;;;14.50;100.00;99133.56;5052915;28;828;-61
2024/03/12 13:18:35;;;;;;;;;;;;;;;14.42;100.00;99137.81;5053137;28;856;-61
2024/03/12 13:21:02;;;;;;;;;;;;;;;14.52;100.00;99138.69;5052991;28;875;-60
2024/03/12 13:23:29;;;;;;;;;;;;;;;14.61;100.00;99126.91;5034991;28;1287;-60
2024/03/12 13:25:55;;;;;;;;;;;;;;;14.63;100.00;99125.25;5052915;28;831;-60
2024/03/12 13:28:22;;;;;;;;;;;;;;;14.65;100.00;99124.81;5052990;28;903;-59
2024/03/12 13:30:53;;;;;;;;;;;;;;;14.58;100.00;99120.25;5052773;28;1976;-59
2024/03/12 13:33:20;;;;;;;;;;;;;;;14.47;100.00;99115.00;5052684;28;876;-59
2024/03/12 13:35:47;;;;;;;;;;;;;;;14.41;100.00;99116.78;5052764;28;887;-59
2024/03/12 13:38:14;;;;;;;;;;;;;;;14.48;100.00;99116.56;5052666;28;845;-58
2024/03/12 13:40:41;;;;;;;;;;;;;;;14.61;100.00;99119.34;5052619;28;955;-59
2024/03/12 13:43:11;;;;;;;;;;;;;;;14.65;100.00;99113.69;5034803;28;993;-59
2024/03/12 13:45:38;;;;;;;;;;;;;;;14.60;100.00;99105.91;5052484;28;931;-59